Time;durP1;ratioP1;P1;durP2;ratioP2;P2;SDS_P1;SDS_P2;PMS_P1;PMS_P2;Temp;Humidity;BMP_temperature;BMP_pressure;BME280_temperature;BME280_humidity;BME280_pressure;Samples;Min_cycle;Max_cycle;Signal;HPM_P1;HPM_P2
2023/05/22 00:01:21;;;;;;;35.70;16.67;;;13.50;99.90;;;;;;4890310;29;39061;-82
2023/05/22 00:04:03;;;;;;;34.75;15.52;;;13.50;99.90;;;;;;4892084;29;49383;-82
2023/05/22 00:06:58;;;;;;;35.38;15.05;;;13.50;99.90;;;;;;4890761;28;49952;-83
2023/05/22 00:09:32;;;;;;;31.70;16.13;;;13.50;99.90;;;;;;4991350;23;40326;-82
2023/05/22 00:16:06;;;;;;;30.67;16.30;;;13.40;99.90;;;;;;4868875;29;50929;-82
2023/05/22 00:28:05;;;;;;;33.53;17.67;;;13.40;99.90;;;;;;4963485;23;20041;-80
2023/05/22 00:30:40;;;;;;;33.70;17.13;;;13.40;99.90;;;;;;4829811;29;41242;-81
2023/05/22 00:33:23;;;;;;;41.35;18.27;;;13.40;99.90;;;;;;4866667;29;40392;-83
2023/05/22 00:36:11;;;;;;;34.25;17.33;;;13.40;99.90;;;;;;4866178;29;38447;-82
2023/05/22 00:41:40;;;;;;;38.15;18.15;;;13.40;99.90;;;;;;4945588;23;20043;-81
2023/05/22 00:51:22;;;;;;;48.70;20.92;;;13.40;99.90;;;;;;4956082;23;39308;-79
2023/05/22 00:54:29;;;;;;;45.42;19.77;;;13.30;99.90;;;;;;4882299;29;49936;-82
2023/05/22 00:57:32;;;;;;;37.55;18.05;;;13.30;99.90;;;;;;4880409;29;50089;-79
2023/05/22 01:08:26;;;;;;;35.88;17.75;;;13.30;99.90;;;;;;5862399;23;21410;-84
2023/05/22 01:11:35;;;;;;;36.35;18.67;;;13.30;99.90;;;;;;4866698;29;39797;-85
2023/05/22 01:25:54;;;;;;;41.17;20.35;;;13.30;99.90;;;;;;5159253;23;20034;-84
2023/05/22 01:31:50;;;;;;;36.80;19.10;;;13.30;99.90;;;;;;4868463;29;50753;-84
2023/05/22 01:37:24;;;;;;;42.03;19.08;;;13.30;99.90;;;;;;5528945;23;20077;-83
2023/05/22 01:54:54;;;;;;;37.38;19.98;;;13.30;99.90;;;;;;4878788;29;49840;-85
2023/05/22 02:10:21;;;;;;;42.00;23.10;;;13.20;99.90;;;;;;5788467;23;20046;-85
2023/05/22 02:20:35;;;;;;;48.83;23.60;;;13.20;99.90;;;;;;5229731;23;20041;-82
2023/05/22 02:40:36;;;;;;;40.25;20.27;;;13.20;99.90;;;;;;5224694;23;20063;31
2023/05/22 02:50:35;;;;;;;43.78;23.25;;;13.20;99.90;;;;;;4248821;23;40175;31
2023/05/22 02:53:06;;;;;;;45.78;25.63;;;13.10;99.90;;;;;;4875601;29;36169;-83
2023/05/22 02:55:39;;;;;;;42.03;21.70;;;13.10;99.90;;;;;;4870895;29;37348;-83
2023/05/22 03:00:44;;;;;;;39.38;21.63;;;13.20;99.90;;;;;;5305869;23;20055;-84
2023/05/22 03:03:22;;;;;;;53.38;22.90;;;13.20;99.90;;;;;;5497213;23;39873;31
2023/05/22 03:05:52;;;;;;;38.42;20.35;;;13.10;99.90;;;;;;4889992;23;39814;-86
2023/05/22 03:08:20;;;;;;;47.25;21.30;;;13.10;99.90;;;;;;4863941;29;39553;-85
2023/05/22 03:11:06;;;;;;;57.13;25.23;;;13.10;99.90;;;;;;4858414;29;38903;-85
2023/05/22 03:13:32;;;;;;;42.33;23.45;;;13.00;99.90;;;;;;4856387;29;48321;-85
2023/05/22 03:29:37;;;;;;;47.63;24.13;;;13.10;99.90;;;;;;5765068;23;21183;-83
2023/05/22 03:32:16;;;;;;;46.58;22.80;;;13.10;99.90;;;;;;4884984;29;38636;-84
2023/05/22 03:35:07;;;;;;;41.83;23.63;;;13.10;99.90;;;;;;4885738;29;37381;-84
2023/05/22 03:37:46;;;;;;;45.47;23.23;;;13.10;99.90;;;;;;4883804;29;47598;-84
2023/05/22 03:40:46;;;;;;;46.38;25.45;;;13.10;99.90;;;;;;4884264;29;38594;-84
2023/05/22 03:46:12;;;;;;;41.00;22.52;;;13.00;99.90;;;;;;5036136;23;20034;-84
2023/05/22 03:49:07;;;;;;;49.10;24.40;;;13.00;99.90;;;;;;5128730;23;38867;-84
2023/05/22 03:51:36;;;;;;;42.80;24.90;;;13.00;99.90;;;;;;4886452;29;48229;-84
2023/05/22 03:59:19;;;;;;;42.33;22.67;;;12.90;99.90;;;;;;5558225;23;20042;-85
2023/05/22 04:01:53;;;;;;;37.35;23.88;;;12.90;99.90;;;;;;4878314;29;40201;-85
2023/05/22 04:05:06;;;;;;;49.72;24.45;;;13.00;99.90;;;;;;4873260;29;39516;-83
2023/05/22 04:07:50;;;;;;;53.83;24.67;;;13.00;99.90;;;;;;4853122;29;48039;-84
2023/05/22 04:10:47;;;;;;;43.58;24.52;;;13.00;99.90;;;;;;4846339;29;38903;-82
2023/05/22 04:19:43;;;;;;;49.08;25.85;;;13.00;99.90;;;;;;5268194;24;20041;-83
2023/05/22 04:24:47;;;;;;;42.00;25.15;;;13.00;99.90;;;;;;5375431;23;20037;-83
2023/05/22 04:27:28;;;;;;;43.42;24.65;;;13.10;99.90;;;;;;4889230;29;38815;-84
2023/05/22 05:20:17;;;;;;;55.17;34.97;;;14.50;99.90;;;;;;5801199;23;19925;-85
2023/05/22 05:36:20;;;;;;;55.55;34.75;;;14.60;99.90;;;;;;5587946;23;20034;-83
2023/05/22 05:41:30;;;;;;;51.70;31.80;;;14.80;99.90;;;;;;4975258;23;20042;-83
2023/05/22 05:46:42;;;;;;;51.85;31.95;;;15.00;99.90;;;;;;5127184;23;20037;-86
2023/05/22 05:49:09;;;;;;;53.78;33.25;;;15.20;99.90;;;;;;4855969;29;37025;-85
2023/05/22 05:51:35;;;;;;;45.55;32.05;;;15.30;99.90;;;;;;4854135;29;36675;-86
2023/05/22 05:54:02;;;;;;;48.28;33.42;;;15.30;99.90;;;;;;4854009;29;38546;-87
2023/05/22 05:56:28;;;;;;;46.83;32.40;;;15.40;99.90;;;;;;4853527;29;47144;-87
2023/05/22 05:58:54;;;;;;;50.65;33.85;;;15.50;99.90;;;;;;4856203;29;39026;-86
2023/05/22 06:01:23;;;;;;;50.45;33.28;;;15.60;99.90;;;;;;4850923;29;36940;-87
2023/05/22 06:03:50;;;;;;;51.90;32.88;;;15.70;99.90;;;;;;4857407;29;39256;-86
2023/05/22 06:06:16;;;;;;;42.95;30.02;;;15.80;99.90;;;;;;4853233;29;37669;-87
2023/05/22 06:08:43;;;;;;;51.08;25.50;;;16.00;99.90;;;;;;4852016;29;37760;-89
2023/05/22 06:11:09;;;;;;;46.50;22.95;;;15.90;99.90;;;;;;4852243;29;36195;-87
2023/05/22 06:13:35;;;;;;;41.78;21.50;;;15.90;99.90;;;;;;4849302;29;39812;-88
2023/05/22 06:16:01;;;;;;;35.88;21.60;;;15.90;99.90;;;;;;4852342;29;38693;-87
2023/05/22 06:18:27;;;;;;;44.50;21.90;;;15.90;99.90;;;;;;4853208;29;47240;-86
2023/05/22 06:20:53;;;;;;;41.13;22.75;;;15.90;99.90;;;;;;4852139;29;36174;-87
2023/05/22 06:23:19;;;;;;;46.20;23.58;;;15.80;99.90;;;;;;4848084;29;39432;-88
2023/05/22 06:25:45;;;;;;;38.05;21.15;;;15.90;99.90;;;;;;4847455;29;38963;-89
2023/05/22 06:28:12;;;;;;;36.20;19.55;;;15.90;99.90;;;;;;4848340;29;37443;-87
2023/05/22 06:30:38;;;;;;;35.95;21.35;;;15.90;99.90;;;;;;4850180;29;36255;-89
2023/05/22 06:33:04;;;;;;;38.30;23.00;;;15.80;99.90;;;;;;4846773;29;37968;-88
2023/05/22 06:35:31;;;;;;;40.05;23.17;;;15.80;99.90;;;;;;4845306;29;39492;-86
2023/05/22 06:37:57;;;;;;;41.58;21.25;;;15.80;99.90;;;;;;4843937;29;37562;-86
2023/05/22 06:40:23;;;;;;;48.92;26.13;;;15.80;99.90;;;;;;4848129;29;39261;-87
2023/05/22 06:42:51;;;;;;;43.60;23.45;;;15.80;99.90;;;;;;4844993;29;38848;-86
2023/05/22 06:45:19;;;;;;;42.58;25.58;;;15.70;99.90;;;;;;4845971;29;37971;-88
2023/05/22 06:47:46;;;;;;;40.03;22.25;;;15.80;99.90;;;;;;4852524;29;39085;-91
2023/05/22 06:50:12;;;;;;;38.03;22.52;;;15.80;99.90;;;;;;4849464;29;37509;-90
2023/05/22 06:52:46;;;;;;;38.28;22.75;;;15.70;99.90;;;;;;4851661;29;38558;-88
2023/05/22 06:55:12;;;;;;;47.15;25.52;;;15.80;99.90;;;;;;4849885;29;37675;-89
2023/05/22 06:57:38;;;;;;;36.38;20.52;;;15.90;99.90;;;;;;4856758;29;37725;-88
2023/05/22 07:00:08;;;;;;;34.15;20.23;;;15.90;99.90;;;;;;4857925;29;36402;-88
2023/05/22 07:02:38;;;;;;;36.90;20.35;;;16.00;99.90;;;;;;4857589;29;37642;-89
2023/05/22 07:05:04;;;;;;;40.60;20.95;;;16.00;99.90;;;;;;4853837;29;38301;-88
2023/05/22 07:07:30;;;;;;;27.38;18.52;;;16.20;99.90;;;;;;4849760;29;39619;-88
2023/05/22 07:09:56;;;;;;;36.67;20.17;;;16.20;99.90;;;;;;4854362;29;36337;-89
2023/05/22 07:12:25;;;;;;;40.53;19.55;;;16.20;99.90;;;;;;4845873;29;39008;-88
2023/05/22 07:14:52;;;;;;;38.22;20.25;;;16.10;99.90;;;;;;4858015;29;37838;-85
2023/05/22 07:17:19;;;;;;;32.42;19.15;;;16.20;99.90;;;;;;4853775;29;37516;-78
2023/05/22 07:19:45;;;;;;;28.85;16.40;;;16.40;99.90;;;;;;4854128;29;36573;-87
2023/05/22 07:22:11;;;;;;;42.08;19.75;;;16.70;99.90;;;;;;4864795;29;36614;-86
2023/05/22 07:24:37;;;;;;;38.55;17.95;;;16.90;99.90;;;;;;4857314;29;39170;-88
2023/05/22 07:27:04;;;;;;;42.28;19.33;;;16.90;99.90;;;;;;4871235;29;37471;-86
2023/05/22 07:29:30;;;;;;;34.22;17.90;;;17.20;99.90;;;;;;4853055;29;36527;-86
2023/05/22 07:31:56;;;;;;;37.65;17.55;;;17.70;99.90;;;;;;4853049;29;37892;-89
2023/05/22 07:34:28;;;;;;;38.97;18.90;;;18.00;99.90;;;;;;4858598;29;39328;-86
2023/05/22 07:36:55;;;;;;;29.88;16.15;;;18.30;99.90;;;;;;4860515;29;37388;-86
2023/05/22 07:39:21;;;;;;;32.08;17.15;;;18.50;99.90;;;;;;4859705;29;36823;-87
2023/05/22 07:41:52;;;;;;;27.40;15.23;;;18.60;99.90;;;;;;4854263;29;39066;-85
2023/05/22 07:44:19;;;;;;;28.33;13.63;;;18.50;99.90;;;;;;4849271;29;39804;-86
2023/05/22 07:46:45;;;;;;;33.00;14.82;;;18.60;99.90;;;;;;4858441;29;38405;-87
2023/05/22 07:49:11;;;;;;;22.90;12.98;;;18.90;99.90;;;;;;4855869;29;37511;-86
2023/05/22 07:51:37;;;;;;;73.00;17.13;;;19.00;99.90;;;;;;4851421;29;39090;-86
2023/05/22 07:54:03;;;;;;;31.75;13.73;;;19.30;99.90;;;;;;4853553;29;38245;-85
2023/05/22 07:56:31;;;;;;;40.97;14.75;;;19.40;99.90;;;;;;4855841;29;38651;-86
2023/05/22 07:58:57;;;;;;;32.72;16.48;;;19.50;99.90;;;;;;4853107;29;36298;-85
2023/05/22 08:01:23;;;;;;;33.42;15.60;;;19.60;99.90;;;;;;4855673;29;38855;-86
2023/05/22 08:03:49;;;;;;;32.30;15.60;;;19.70;99.90;;;;;;4852195;29;38738;-86
2023/05/22 08:06:16;;;;;;;27.85;14.10;;;19.80;99.90;;;;;;4847205;29;37534;-86
2023/05/22 08:08:42;;;;;;;30.65;15.25;;;20.10;99.90;;;;;;4850990;29;36570;-86
2023/05/22 08:11:08;;;;;;;33.33;16.73;;;20.20;99.90;;;;;;4860828;29;38255;-86
2023/05/22 08:13:37;;;;;;;29.20;16.50;;;20.30;99.90;;;;;;4865826;29;39101;-87
2023/05/22 08:16:03;;;;;;;32.17;17.10;;;20.40;99.90;;;;;;4861593;29;38221;-86
2023/05/22 08:18:29;;;;;;;33.33;18.23;;;20.30;99.90;;;;;;4854324;29;37511;-86
2023/05/22 08:20:56;;;;;;;32.75;16.92;;;20.50;99.90;;;;;;4843485;29;37683;-86
2023/05/22 08:23:22;;;;;;;28.98;15.45;;;20.60;99.90;;;;;;4856604;29;38796;-86
2023/05/22 08:25:49;;;;;;;32.78;16.88;;;20.70;99.90;;;;;;4856833;29;37419;-85
2023/05/22 08:28:15;;;;;;;29.20;15.35;;;20.70;99.90;;;;;;4851208;29;36050;-85
2023/05/22 08:30:41;;;;;;;26.27;14.38;;;20.90;99.90;;;;;;4853266;29;40095;-85
2023/05/22 08:33:07;;;;;;;25.67;13.93;;;21.20;99.90;;;;;;4843756;29;38883;-86
2023/05/22 08:35:33;;;;;;;23.90;14.77;;;21.40;99.90;;;;;;4845028;29;37980;-84
2023/05/22 08:37:59;;;;;;;33.58;17.77;;;21.60;99.90;;;;;;4849799;29;37267;-84
2023/05/22 08:40:36;;;;;;;31.77;14.65;;;21.70;99.90;;;;;;4844760;29;37650;-81
2023/05/22 08:43:05;;;;;;;29.63;16.58;;;21.80;99.90;;;;;;4851868;29;39601;-84
2023/05/22 08:45:32;;;;;;;25.80;15.30;;;21.70;99.90;;;;;;4855787;29;38098;-84
2023/05/22 08:48:05;;;;;;;26.38;15.38;;;21.70;99.90;;;;;;4852852;29;37259;-84
2023/05/22 08:50:31;;;;;;;24.27;15.48;;;21.70;99.90;;;;;;4871073;29;46792;-83
2023/05/22 08:53:01;;;;;;;29.05;16.45;;;21.80;99.90;;;;;;4851961;29;39748;-84
2023/05/22 08:55:27;;;;;;;28.25;15.57;;;21.80;99.90;;;;;;4851535;29;47156;-84
2023/05/22 08:57:56;;;;;;;33.00;18.40;;;21.70;99.90;;;;;;4850464;29;37622;-85
2023/05/22 09:00:22;;;;;;;32.60;17.00;;;21.90;99.90;;;;;;4846610;29;37647;-84
2023/05/22 09:02:49;;;;;;;29.58;17.58;;;22.00;99.90;;;;;;4851697;29;37462;-83
2023/05/22 09:05:16;;;;;;;25.63;16.63;;;22.30;99.90;;;;;;4852890;29;38967;-83
2023/05/22 09:07:43;;;;;;;29.08;14.68;;;22.40;99.90;;;;;;4865259;29;36324;-80
2023/05/22 09:10:10;;;;;;;32.67;16.70;;;22.40;99.90;;;;;;4857830;29;39687;-84
2023/05/22 09:12:36;;;;;;;26.38;15.02;;;22.60;99.90;;;;;;4855017;29;37877;-84
2023/05/22 09:15:09;;;;;;;34.08;16.45;;;22.70;99.90;;;;;;4854323;29;37540;-84
2023/05/22 09:17:39;;;;;;;43.85;16.80;;;22.50;99.90;;;;;;4848007;29;48637;-85
2023/05/22 09:20:08;;;;;;;32.75;15.73;;;22.30;99.90;;;;;;4849878;29;38963;-85
2023/05/22 09:22:38;;;;;;;32.28;16.27;;;22.50;99.90;;;;;;4851793;29;47446;-85
2023/05/22 09:25:05;;;;;;;27.20;15.75;;;22.50;99.90;;;;;;4859771;29;37512;-84
2023/05/22 09:27:33;;;;;;;27.40;15.63;;;22.70;99.90;;;;;;4856568;29;47235;-85
2023/05/22 09:29:59;;;;;;;26.42;14.23;;;22.90;99.90;;;;;;4854827;29;38048;-87
2023/05/22 09:32:28;;;;;;;26.23;14.25;;;23.10;99.90;;;;;;4852069;29;36964;-87
2023/05/22 09:35:02;;;;;;;28.38;14.15;;;23.20;99.90;;;;;;4858894;29;38595;-86
2023/05/22 09:37:32;;;;;;;27.70;12.95;;;23.20;99.90;;;;;;4856875;29;36603;-87
2023/05/22 09:40:02;;;;;;;26.35;14.48;;;23.50;99.90;;;;;;4861665;29;37719;-88
2023/05/22 09:42:28;;;;;;;24.40;12.82;;;23.80;99.90;;;;;;4864367;29;37779;-87
2023/05/22 09:44:54;;;;;;;21.67;12.93;;;23.80;99.90;;;;;;4853571;29;39530;-87
2023/05/22 09:47:21;;;;;;;26.35;13.60;;;23.60;99.90;;;;;;4851725;29;37404;-87
2023/05/22 09:49:47;;;;;;;20.40;12.05;;;23.60;99.90;;;;;;4849661;29;38835;-87
2023/05/22 09:52:15;;;;;;;23.30;12.20;;;23.80;99.90;;;;;;4854452;29;37653;-87
2023/05/22 09:54:54;;;;;;;27.48;13.50;;;24.10;99.90;;;;;;4851733;29;38425;-86
2023/05/22 09:57:22;;;;;;;22.52;11.70;;;24.20;99.90;;;;;;4854929;29;36674;-87
2023/05/22 09:59:57;;;;;;;22.88;12.50;;;24.20;99.90;;;;;;4859503;29;39621;-86
2023/05/22 10:02:25;;;;;;;30.48;14.45;;;24.60;99.90;;;;;;4853630;29;38274;-87
2023/05/22 10:04:52;;;;;;;23.30;12.90;;;24.70;99.90;;;;;;4856101;29;38234;-87
2023/05/22 10:07:22;;;;;;;26.05;13.10;;;24.30;99.90;;;;;;4850609;29;37609;-87
2023/05/22 10:09:58;;;;;;;30.77;16.55;;;23.70;99.90;;;;;;4854527;29;38043;-87
2023/05/22 10:12:27;;;;;;;25.50;14.20;;;23.50;99.90;;;;;;4846021;29;39863;-87
2023/05/22 10:14:54;;;;;;;32.17;16.50;;;23.70;99.90;;;;;;4853682;29;38539;-87
2023/05/22 10:17:21;;;;;;;27.00;14.45;;;24.00;99.90;;;;;;4848572;29;36256;-87
2023/05/22 10:19:47;;;;;;;25.98;13.73;;;24.10;99.90;;;;;;4865972;29;38134;-87
2023/05/22 10:22:19;;;;;;;19.83;11.55;;;24.30;99.90;;;;;;4850627;29;38832;-87
2023/05/22 10:24:47;;;;;;;32.50;13.90;;;24.50;99.90;;;;;;4853393;29;37589;-87
2023/05/22 10:27:13;;;;;;;32.90;14.60;;;24.70;99.90;;;;;;4844583;29;36548;-83
2023/05/22 10:29:49;;;;;;;20.13;11.70;;;24.50;99.90;;;;;;4847046;29;38812;-84
2023/05/22 10:32:34;;;;;;;27.67;12.60;;;24.20;99.90;;;;;;4843677;29;38750;-85
2023/05/22 10:35:18;;;;;;;25.05;12.73;;;24.00;99.90;;;;;;4845404;29;38414;-86
2023/05/22 10:38:01;;;;;;;25.70;13.30;;;24.20;99.90;;;;;;4852858;29;48359;-83
2023/05/22 10:40:31;;;;;;;31.63;13.07;;;24.10;99.90;;;;;;4846874;29;47350;-88
2023/05/22 10:43:02;;;;;;;40.60;18.08;;;24.10;99.90;;;;;;4852766;29;37820;-88
2023/05/22 10:45:29;;;;;;;28.70;14.52;;;24.00;99.90;;;;;;4834353;29;47311;-87
2023/05/22 10:48:05;;;;;;;33.42;14.43;;;23.90;99.90;;;;;;4865297;29;37467;-88
2023/05/22 10:50:32;;;;;;;29.50;15.07;;;24.10;99.90;;;;;;4855893;29;48124;-86
2023/05/22 10:53:21;;;;;;;23.63;12.25;;;24.30;99.90;;;;;;4851169;29;38669;-87
2023/05/22 10:55:52;;;;;;;26.10;13.95;;;24.20;99.90;;;;;;4842814;29;47416;-87
2023/05/22 10:58:30;;;;;;;25.40;12.27;;;24.20;99.90;;;;;;4854970;29;35423;-86
2023/05/22 11:01:18;;;;;;;20.98;12.32;;;24.20;99.90;;;;;;4859310;29;38851;-85
2023/05/22 11:03:58;;;;;;;27.88;13.10;;;24.10;99.90;;;;;;4845218;29;48316;-86
2023/05/22 11:06:46;;;;;;;27.20;13.82;;;24.10;99.90;;;;;;4845372;29;38542;-85
2023/05/22 11:09:28;;;;;;;27.55;13.73;;;24.10;99.90;;;;;;4844742;29;37965;-85
2023/05/22 11:12:27;;;;;;;22.45;11.60;;;23.70;99.90;;;;;;4844379;29;38695;-85
2023/05/22 11:14:55;;;;;;;28.52;12.25;;;23.80;99.90;;;;;;4844149;29;47300;-85
2023/05/22 11:17:26;;;;;;;28.63;12.75;;;23.80;99.90;;;;;;4841664;29;39117;-84
2023/05/22 11:20:11;;;;;;;22.88;12.90;;;23.80;99.90;;;;;;4844594;29;36215;-86
2023/05/22 11:22:41;;;;;;;30.20;13.65;;;24.00;99.90;;;;;;4848531;29;48803;-84
2023/05/22 11:25:10;;;;;;;26.85;12.98;;;24.00;99.90;;;;;;4844715;29;38991;-85
2023/05/22 11:27:39;;;;;;;30.25;13.45;;;24.10;99.90;;;;;;4842152;29;37503;-85
2023/05/22 11:30:08;;;;;;;24.13;11.93;;;24.40;99.90;;;;;;4841525;29;34947;-86
2023/05/22 11:32:39;;;;;;;22.67;11.80;;;24.60;99.90;;;;;;4846701;29;46725;-85
2023/05/22 11:35:07;;;;;;;24.25;13.52;;;24.80;99.90;;;;;;4853596;29;38240;-86
2023/05/22 11:37:38;;;;;;;23.98;12.52;;;24.60;99.90;;;;;;4855531;29;47326;-85
2023/05/22 11:40:08;;;;;;;25.95;11.80;;;24.70;99.90;;;;;;4850295;29;36125;-87
2023/05/22 11:42:34;;;;;;;19.60;10.60;;;24.70;99.90;;;;;;4848233;29;39120;-86
2023/05/22 11:45:01;;;;;;;25.73;9.98;;;24.80;99.90;;;;;;4843410;29;37948;-86
2023/05/22 11:47:27;;;;;;;19.45;10.00;;;24.90;99.90;;;;;;4855339;29;39146;-87
2023/05/22 11:49:57;;;;;;;23.83;10.65;;;24.80;99.90;;;;;;4856942;29;37687;-87
2023/05/22 11:52:23;;;;;;;24.02;10.02;;;25.10;99.90;;;;;;4853445;29;37875;-87
2023/05/22 11:54:51;;;;;;;20.20;9.50;;;25.20;99.90;;;;;;4854922;29;38033;-88
2023/05/22 11:57:18;;;;;;;21.80;9.32;;;24.80;99.90;;;;;;4856274;29;38811;-87
2023/05/22 11:59:45;;;;;;;22.02;9.93;;;24.60;99.90;;;;;;4855727;29;37601;-87
2023/05/22 12:02:13;;;;;;;21.15;8.75;;;24.70;99.90;;;;;;4855895;29;37727;-87
2023/05/22 12:04:40;;;;;;;26.10;10.90;;;24.60;99.90;;;;;;4856571;29;38913;-86
2023/05/22 12:07:06;;;;;;;25.10;10.00;;;24.60;99.90;;;;;;4856488;29;37709;-87
2023/05/22 12:09:33;;;;;;;25.85;9.70;;;24.50;99.90;;;;;;4861552;29;37627;-88
2023/05/22 12:11:59;;;;;;;23.60;9.27;;;24.50;99.90;;;;;;4858407;29;38395;-88
2023/05/22 12:14:30;;;;;;;23.85;9.02;;;24.80;99.90;;;;;;4855890;29;37617;-87
2023/05/22 12:17:00;;;;;;;26.80;8.82;;;25.00;99.90;;;;;;4856614;29;39534;-87
2023/05/22 12:19:26;;;;;;;23.73;10.23;;;25.00;99.90;;;;;;4856077;29;36028;-87
2023/05/22 12:21:53;;;;;;;24.48;9.38;;;24.90;99.90;;;;;;4856012;29;37736;-88
2023/05/22 12:24:22;;;;;;;25.13;9.52;;;24.70;99.90;;;;;;4857197;29;38050;-89
2023/05/22 12:26:52;;;;;;;26.30;9.85;;;24.60;99.90;;;;;;4857560;29;38333;-87
2023/05/22 12:29:21;;;;;;;23.80;9.65;;;24.30;99.90;;;;;;4856177;29;36232;-87
2023/05/22 12:31:48;;;;;;;21.88;9.90;;;24.30;99.90;;;;;;4855975;29;39169;-87
2023/05/22 12:34:18;;;;;;;28.98;10.77;;;24.40;99.90;;;;;;4856579;29;40415;-86
2023/05/22 12:36:45;;;;;;;21.65;9.63;;;24.30;99.90;;;;;;4855118;29;38045;-88
2023/05/22 12:39:18;;;;;;;21.98;9.80;;;24.30;99.90;;;;;;4851236;29;37758;-87
2023/05/22 12:41:45;;;;;;;24.10;11.27;;;24.50;99.90;;;;;;4853592;29;37728;-87
2023/05/22 12:44:13;;;;;;;22.00;11.50;;;24.70;99.90;;;;;;4851817;29;39465;-88
2023/05/22 12:46:40;;;;;;;22.98;11.05;;;24.50;99.90;;;;;;4852483;29;37663;-87
2023/05/22 12:49:06;;;;;;;25.83;12.52;;;24.60;99.90;;;;;;4856272;29;37399;-88
2023/05/22 12:51:33;;;;;;;27.48;14.60;;;24.40;99.90;;;;;;4857340;29;38727;-90
2023/05/22 12:54:00;;;;;;;23.80;14.82;;;24.10;99.90;;;;;;4855012;29;37342;-87
2023/05/22 12:56:30;;;;;;;25.00;14.02;;;24.10;99.90;;;;;;4852174;29;37572;-88
2023/05/22 12:58:57;;;;;;;26.20;13.73;;;24.10;99.90;;;;;;4852822;29;36273;-88
2023/05/22 13:01:23;;;;;;;29.75;14.55;;;23.90;99.90;;;;;;4850813;29;38801;-88
2023/05/22 13:03:51;;;;;;;24.17;13.45;;;23.80;99.90;;;;;;4856332;29;39396;-87
2023/05/22 13:06:18;;;;;;;29.77;13.98;;;23.90;99.90;;;;;;4856477;29;37855;-87
2023/05/22 13:08:44;;;;;;;28.73;16.17;;;23.70;99.90;;;;;;4855125;29;36394;-87
2023/05/22 13:11:11;;;;;;;25.13;15.55;;;23.30;99.90;;;;;;4852647;29;37583;-85
2023/05/22 13:13:37;;;;;;;32.28;16.50;;;23.00;99.90;;;;;;4846659;29;39162;-84
2023/05/22 13:16:03;;;;;;;23.70;15.15;;;23.10;99.90;;;;;;4855943;29;39248;-84
2023/05/22 13:18:29;;;;;;;30.30;15.20;;;23.40;99.90;;;;;;4858297;29;38563;-85
2023/05/22 13:20:56;;;;;;;22.92;14.70;;;23.70;99.90;;;;;;4856245;29;38607;-85
2023/05/22 13:23:22;;;;;;;28.67;15.73;;;23.70;99.90;;;;;;4854097;29;37749;-85
2023/05/22 13:25:49;;;;;;;27.70;17.02;;;23.60;99.90;;;;;;4847654;29;37973;-86
2023/05/22 13:28:15;;;;;;;22.38;14.70;;;23.60;99.90;;;;;;4847562;29;37510;-85
2023/05/22 13:30:41;;;;;;;22.85;15.27;;;23.50;99.90;;;;;;4848463;29;37465;-84
2023/05/22 13:33:07;;;;;;;26.90;15.05;;;23.70;99.90;;;;;;4863766;29;37271;-85
2023/05/22 13:35:33;;;;;;;22.65;14.10;;;24.00;99.90;;;;;;4853562;29;37901;-84
2023/05/22 13:37:59;;;;;;;22.55;12.38;;;24.10;99.90;;;;;;4852107;29;36595;-84
2023/05/22 13:40:25;;;;;;;18.83;11.95;;;24.10;99.90;;;;;;4852306;29;37888;-85
2023/05/22 13:42:52;;;;;;;19.17;11.65;;;24.30;99.90;;;;;;4851600;29;38158;-84
2023/05/22 13:45:18;;;;;;;21.67;14.32;;;24.40;99.90;;;;;;4853479;29;37694;-86
2023/05/22 13:47:44;;;;;;;25.45;15.38;;;24.10;99.90;;;;;;4854244;29;37084;-83
2023/05/22 13:50:10;;;;;;;25.27;11.98;;;23.70;99.90;;;;;;4851130;29;37939;-84
2023/05/22 13:52:36;;;;;;;18.52;11.50;;;23.60;99.90;;;;;;4854409;29;37978;-85
2023/05/22 13:55:02;;;;;;;16.13;11.65;;;23.70;99.90;;;;;;4852078;29;38485;-84
2023/05/22 13:57:29;;;;;;;18.48;10.52;;;23.70;99.90;;;;;;4861388;29;36101;-84
2023/05/22 13:59:55;;;;;;;19.65;12.50;;;23.60;99.90;;;;;;4853590;29;38710;-83
2023/05/22 14:02:21;;;;;;;18.65;11.88;;;23.70;99.90;;;;;;4852122;29;39254;-84
2023/05/22 14:04:47;;;;;;;13.63;10.38;;;23.40;99.90;;;;;;4854340;29;37569;-85
2023/05/22 14:07:14;;;;;;;14.98;11.00;;;23.40;99.90;;;;;;4855030;29;36514;-84
2023/05/22 14:09:41;;;;;;;18.15;11.73;;;23.60;99.90;;;;;;4855767;29;37594;-83
2023/05/22 14:12:07;;;;;;;16.02;10.45;;;23.50;99.90;;;;;;4853410;29;38720;-85
2023/05/22 14:14:33;;;;;;;18.75;10.85;;;23.40;99.90;;;;;;4856370;29;37312;-84
2023/05/22 14:16:59;;;;;;;17.25;11.10;;;23.30;99.90;;;;;;4853758;29;37592;-84
2023/05/22 14:19:25;;;;;;;13.60;9.23;;;23.50;99.90;;;;;;4848727;29;37770;-86
2023/05/22 14:21:51;;;;;;;16.80;9.63;;;23.20;99.90;;;;;;4854525;29;38191;-85
2023/05/22 14:24:18;;;;;;;17.50;9.75;;;23.10;99.90;;;;;;4857107;29;38805;-85
2023/05/22 14:26:44;;;;;;;17.80;8.52;;;23.00;99.90;;;;;;4856478;29;37621;-85
2023/05/22 14:29:10;;;;;;;14.98;8.52;;;23.10;99.90;;;;;;4853721;29;39572;-85
2023/05/22 14:31:45;;;;;;;19.23;9.63;;;23.20;99.90;;;;;;4853536;29;37885;-85
2023/05/22 14:34:12;;;;;;;14.70;8.85;;;22.90;99.90;;;;;;4853371;29;39559;-85
2023/05/22 14:36:38;;;;;;;11.38;7.90;;;22.60;99.90;;;;;;4854237;29;37192;-84
2023/05/22 14:39:05;;;;;;;11.63;8.60;;;22.60;99.90;;;;;;4866989;29;39214;-86
2023/05/22 14:41:31;;;;;;;15.02;8.70;;;22.80;99.90;;;;;;4861554;29;38098;-83
2023/05/22 14:43:57;;;;;;;17.42;8.60;;;22.70;99.90;;;;;;4871691;29;38280;-84
2023/05/22 14:46:23;;;;;;;12.57;7.90;;;22.70;99.90;;;;;;4874019;29;37136;-85
2023/05/22 14:48:49;;;;;;;16.08;8.55;;;22.70;99.90;;;;;;4858116;29;38039;-84
2023/05/22 14:51:18;;;;;;;13.15;8.02;;;22.70;99.90;;;;;;4861440;29;37856;-86
2023/05/22 14:53:44;;;;;;;11.40;8.23;;;22.60;99.90;;;;;;4853974;29;37456;-85
2023/05/22 14:56:10;;;;;;;13.18;7.78;;;22.50;99.90;;;;;;4859447;29;36410;-86
2023/05/22 14:58:36;;;;;;;14.63;8.73;;;22.40;99.90;;;;;;4854441;29;39100;-86
2023/05/22 15:01:03;;;;;;;14.73;7.55;;;22.50;99.90;;;;;;4851848;29;39768;-85
2023/05/22 15:03:29;;;;;;;12.90;8.60;;;22.70;99.90;;;;;;4853733;29;38958;-87
2023/05/22 15:05:56;;;;;;;13.68;9.55;;;23.00;99.90;;;;;;4853716;29;37298;-81
2023/05/22 15:08:22;;;;;;;13.45;8.10;;;22.80;99.90;;;;;;4852846;29;38512;-87
2023/05/22 15:10:48;;;;;;;14.65;8.80;;;22.80;99.90;;;;;;4864390;29;38543;-84
2023/05/22 15:13:14;;;;;;;14.07;9.82;;;22.60;99.90;;;;;;4854279;29;37398;-85
2023/05/22 15:15:41;;;;;;;15.88;8.77;;;22.60;99.90;;;;;;4857339;29;37333;-86
2023/05/22 15:18:07;;;;;;;11.40;8.23;;;22.60;99.90;;;;;;4857967;29;38091;-85
2023/05/22 15:20:34;;;;;;;13.65;10.20;;;22.60;99.90;;;;;;4857944;29;37964;-86
2023/05/22 15:23:02;;;;;;;13.43;8.27;;;22.80;99.90;;;;;;4854751;29;37728;-85
2023/05/22 15:25:28;;;;;;;13.05;7.95;;;22.70;99.90;;;;;;4849845;29;47462;-85
2023/05/22 15:27:54;;;;;;;12.75;7.30;;;22.60;99.90;;;;;;4849240;29;38024;-85
2023/05/22 15:30:22;;;;;;;9.57;6.60;;;22.70;99.90;;;;;;4850506;29;39098;-84
2023/05/22 15:32:48;;;;;;;13.93;6.57;;;22.80;99.90;;;;;;4850531;29;37430;-84
2023/05/22 15:35:14;;;;;;;11.48;6.15;;;22.80;99.90;;;;;;4847172;29;36143;-85
2023/05/22 15:37:40;;;;;;;9.77;6.68;;;22.80;99.90;;;;;;4848291;29;39641;-85
2023/05/22 15:40:09;;;;;;;14.50;5.20;;;22.80;99.90;;;;;;4847563;29;40082;-84
2023/05/22 15:42:37;;;;;;;6.93;5.30;;;22.70;99.90;;;;;;4857448;29;38461;-85
2023/05/22 15:45:03;;;;;;;5.40;4.15;;;22.30;99.90;;;;;;4849486;29;36202;-84
2023/05/22 15:47:29;;;;;;;6.30;4.28;;;22.40;99.90;;;;;;4856241;29;38957;-85
2023/05/22 15:49:55;;;;;;;9.70;4.97;;;22.40;99.90;;;;;;4850324;29;38725;-85
2023/05/22 15:52:23;;;;;;;9.45;4.43;;;22.50;99.90;;;;;;4862836;29;37725;-85
2023/05/22 15:54:49;;;;;;;9.48;5.07;;;22.40;99.90;;;;;;4847795;29;36541;-85
2023/05/22 15:57:15;;;;;;;12.73;5.47;;;22.40;99.90;;;;;;4845549;29;39927;-85
2023/05/22 15:59:42;;;;;;;12.98;4.85;;;22.60;99.90;;;;;;4853543;29;38526;-85
2023/05/22 16:02:08;;;;;;;10.48;4.82;;;22.40;99.90;;;;;;4851448;29;37820;-85
2023/05/22 16:04:35;;;;;;;9.05;4.80;;;22.40;99.90;;;;;;4854007;29;36419;-86
2023/05/22 16:07:01;;;;;;;9.25;5.20;;;22.50;99.90;;;;;;4851212;29;39198;-86
2023/05/22 16:09:27;;;;;;;9.73;5.00;;;22.40;99.90;;;;;;4854513;29;48205;-84
2023/05/22 16:11:53;;;;;;;7.93;4.43;;;22.40;99.90;;;;;;4847924;29;37710;-85
2023/05/22 16:14:19;;;;;;;12.93;5.25;;;22.50;99.90;;;;;;4865731;29;36472;-87
2023/05/22 16:16:45;;;;;;;6.53;4.93;;;22.10;99.90;;;;;;4852713;29;39003;-86